UHHH/KHV METAR and TAF weather

Enter ICAO airport designator
Station Type Date Time Source
UHHH METAR 2021/02/28 03:00 UTC NOAA

UHHH 280300Z 26007MPS CAVOK M05/M11 Q1016 R23L/491040 NOSIG RMK QFE756/1008


Station Type Date Time Source
UHHH Decoded METAR 2021/02/28 03:00 UTC NOAA

Habarovsk, Russia (UHHH) 48-31N 135-10E 76M
Feb 27, 2021 - 10:00 PM EST / 2021.02.28 0300 UTC
Wind: from the W (260 degrees) at 16 MPH (14 KT):0
Visibility: greater than 7 mile(s):0
Temperature: 23 F (-5 C)
Windchill: 10 F (-12 C):1
Dew Point: 12 F (-11 C)
Relative Humidity: 62%
Pressure (altimeter): 30.00 in. Hg (1016 hPa)
ob: UHHH 280300Z 26007MPS CAVOK M05/M11 Q1016 R23L/491040 NOSIG RMK QFE756/1008
cycle: 3

Station Type Date Time Source
UHHH TAF 2021/02/28 03:24 UTC NOAA

TAF TAF UHHH 280156Z 2803/0109 26008MPS 9999 SCT015 SCT025CB
TEMPO 2803/2818 28009G15MPS 3100 -SHSN SCT011 BKN020CB

Example: see airport list